sensor_id;sensor_type;location;lat;lon;timestamp;temperature;humidity
1329;DHT22;658;48.820;9.354;2023-06-04T00:01:25;22.60;47.30
1329;DHT22;658;48.820;9.354;2023-06-04T00:05:25;22.60;47.30
1329;DHT22;658;48.820;9.354;2023-06-04T00:09:28;22.60;47.30
1329;DHT22;658;48.820;9.354;2023-06-04T00:13:29;22.60;47.40
1329;DHT22;658;48.820;9.354;2023-06-04T00:17:29;22.60;47.50
1329;DHT22;658;48.820;9.354;2023-06-04T00:21:30;22.50;47.30
1329;DHT22;658;48.820;9.354;2023-06-04T00:25:31;22.50;47.30
1329;DHT22;658;48.820;9.354;2023-06-04T00:29:31;22.50;47.30
1329;DHT22;658;48.820;9.354;2023-06-04T00:33:32;22.50;47.30
1329;DHT22;658;48.820;9.354;2023-06-04T00:37:33;22.50;47.30
1329;DHT22;658;48.820;9.354;2023-06-04T00:41:33;22.50;47.30
1329;DHT22;658;48.820;9.354;2023-06-04T00:45:34;22.50;47.30
1329;DHT22;658;48.820;9.354;2023-06-04T00:49:35;22.50;47.30
1329;DHT22;658;48.820;9.354;2023-06-04T00:53:36;22.50;47.30
1329;DHT22;658;48.820;9.354;2023-06-04T00:57:37;22.50;47.30
1329;DHT22;658;48.820;9.354;2023-06-04T01:01:58;22.50;47.30
1329;DHT22;658;48.820;9.354;2023-06-04T01:06:44;22.50;47.30
1329;DHT22;658;48.820;9.354;2023-06-04T01:10:55;22.50;47.20
1329;DHT22;658;48.820;9.354;2023-06-04T01:14:56;22.40;47.20
1329;DHT22;658;48.820;9.354;2023-06-04T01:18:58;22.40;47.20
1329;DHT22;658;48.820;9.354;2023-06-04T01:23:12;22.40;47.10
1329;DHT22;658;48.820;9.354;2023-06-04T01:27:14;22.40;47.10
1329;DHT22;658;48.820;9.354;2023-06-04T01:31:16;22.40;47.10
1329;DHT22;658;48.820;9.354;2023-06-04T01:35:17;22.40;47.10
1329;DHT22;658;48.820;9.354;2023-06-04T01:39:17;22.40;47.10
1329;DHT22;658;48.820;9.354;2023-06-04T01:43:18;22.40;47.10
1329;DHT22;658;48.820;9.354;2023-06-04T01:47:19;22.40;47.10
1329;DHT22;658;48.820;9.354;2023-06-04T01:51:19;22.40;47.10
1329;DHT22;658;48.820;9.354;2023-06-04T01:55:20;22.40;47.00
1329;DHT22;658;48.820;9.354;2023-06-04T01:59:21;22.30;46.90
1329;DHT22;658;48.820;9.354;2023-06-04T02:03:22;22.30;47.40
1329;DHT22;658;48.820;9.354;2023-06-04T02:07:23;22.40;46.90
1329;DHT22;658;48.820;9.354;2023-06-04T02:11:23;22.30;46.80
1329;DHT22;658;48.820;9.354;2023-06-04T02:15:25;22.30;46.70
1329;DHT22;658;48.820;9.354;2023-06-04T02:19:26;22.30;46.70
1329;DHT22;658;48.820;9.354;2023-06-04T02:23:27;22.30;46.60
1329;DHT22;658;48.820;9.354;2023-06-04T02:27:28;22.30;46.70
1329;DHT22;658;48.820;9.354;2023-06-04T02:31:28;22.20;46.60
1329;DHT22;658;48.820;9.354;2023-06-04T02:35:30;22.20;46.60
1329;DHT22;658;48.820;9.354;2023-06-04T02:39:31;22.20;46.60
1329;DHT22;658;48.820;9.354;2023-06-04T02:43:31;22.20;46.60
1329;DHT22;658;48.820;9.354;2023-06-04T02:47:32;22.20;47.10
1329;DHT22;658;48.820;9.354;2023-06-04T02:51:32;22.20;46.50
1329;DHT22;658;48.820;9.354;2023-06-04T02:55:33;22.20;46.50
1329;DHT22;658;48.820;9.354;2023-06-04T02:59:34;22.10;46.50
1329;DHT22;658;48.820;9.354;2023-06-04T03:03:37;22.10;46.50
1329;DHT22;658;48.820;9.354;2023-06-04T03:07:37;22.10;46.50
1329;DHT22;658;48.820;9.354;2023-06-04T03:11:38;22.10;47.10
1329;DHT22;658;48.820;9.354;2023-06-04T03:15:39;22.10;46.50
1329;DHT22;658;48.820;9.354;2023-06-04T03:19:41;22.10;46.50
1329;DHT22;658;48.820;9.354;2023-06-04T03:23:44;22.10;46.40
1329;DHT22;658;48.820;9.354;2023-06-04T03:27:45;22.10;46.40
1329;DHT22;658;48.820;9.354;2023-06-04T03:31:46;22.10;46.40
1329;DHT22;658;48.820;9.354;2023-06-04T03:35:47;22.00;46.30
1329;DHT22;658;48.820;9.354;2023-06-04T03:39:48;22.10;46.40
1329;DHT22;658;48.820;9.354;2023-06-04T03:43:49;22.10;46.30
1329;DHT22;658;48.820;9.354;2023-06-04T03:47:50;22.00;46.20
1329;DHT22;658;48.820;9.354;2023-06-04T03:51:50;22.00;46.10
1329;DHT22;658;48.820;9.354;2023-06-04T03:55:51;22.00;46.10
1329;DHT22;658;48.820;9.354;2023-06-04T03:59:52;22.00;46.10
1329;DHT22;658;48.820;9.354;2023-06-04T04:03:53;22.00;46.10
1329;DHT22;658;48.820;9.354;2023-06-04T04:07:53;22.00;46.10
1329;DHT22;658;48.820;9.354;2023-06-04T04:11:54;22.00;46.10
1329;DHT22;658;48.820;9.354;2023-06-04T04:15:55;21.90;46.10
1329;DHT22;658;48.820;9.354;2023-06-04T04:19:55;21.90;46.10
1329;DHT22;658;48.820;9.354;2023-06-04T04:23:56;22.00;46.20
1329;DHT22;658;48.820;9.354;2023-06-04T04:27:56;21.90;46.20
1329;DHT22;658;48.820;9.354;2023-06-04T04:32:02;21.90;46.30
1329;DHT22;658;48.820;9.354;2023-06-04T04:36:11;21.90;46.30
1329;DHT22;658;48.820;9.354;2023-06-04T04:40:15;21.90;46.50
1329;DHT22;658;48.820;9.354;2023-06-04T04:44:16;21.90;46.50
1329;DHT22;658;48.820;9.354;2023-06-04T04:48:16;21.90;46.50
1329;DHT22;658;48.820;9.354;2023-06-04T04:52:17;21.90;46.60
1329;DHT22;658;48.820;9.354;2023-06-04T04:56:18;21.90;46.70
1329;DHT22;658;48.820;9.354;2023-06-04T05:00:20;21.90;46.80
1329;DHT22;658;48.820;9.354;2023-06-04T05:04:21;21.90;46.90
1329;DHT22;658;48.820;9.354;2023-06-04T05:08:21;21.90;47.00
1329;DHT22;658;48.820;9.354;2023-06-04T05:12:25;21.90;47.10
1329;DHT22;658;48.820;9.354;2023-06-04T05:16:26;21.90;47.10
1329;DHT22;658;48.820;9.354;2023-06-04T05:20:28;21.90;47.20
1329;DHT22;658;48.820;9.354;2023-06-04T05:24:28;21.90;47.30
1329;DHT22;658;48.820;9.354;2023-06-04T05:28:29;21.80;47.10
1329;DHT22;658;48.820;9.354;2023-06-04T05:32:30;21.90;47.10
1329;DHT22;658;48.820;9.354;2023-06-04T05:36:32;21.90;47.10
1329;DHT22;658;48.820;9.354;2023-06-04T05:40:33;21.90;47.00
1329;DHT22;658;48.820;9.354;2023-06-04T05:44:33;21.90;46.90
1329;DHT22;658;48.820;9.354;2023-06-04T05:48:36;21.90;46.80
1329;DHT22;658;48.820;9.354;2023-06-04T05:52:37;21.80;46.70
1329;DHT22;658;48.820;9.354;2023-06-04T05:56:38;21.90;46.90
1329;DHT22;658;48.820;9.354;2023-06-04T06:00:40;21.90;46.90
1329;DHT22;658;48.820;9.354;2023-06-04T06:04:41;21.90;46.70
1329;DHT22;658;48.820;9.354;2023-06-04T06:08:42;21.80;46.50
1329;DHT22;658;48.820;9.354;2023-06-04T06:12:42;21.80;46.30
1329;DHT22;658;48.820;9.354;2023-06-04T06:16:43;21.90;46.00
1329;DHT22;658;48.820;9.354;2023-06-04T06:20:43;21.80;45.50
1329;DHT22;658;48.820;9.354;2023-06-04T06:24:44;21.90;45.70
1329;DHT22;658;48.820;9.354;2023-06-04T06:28:45;21.80;45.50
1329;DHT22;658;48.820;9.354;2023-06-04T06:32:46;21.90;46.00
1329;DHT22;658;48.820;9.354;2023-06-04T06:36:48;21.90;45.30
1329;DHT22;658;48.820;9.354;2023-06-04T06:40:50;21.90;45.10
1329;DHT22;658;48.820;9.354;2023-06-04T06:44:50;21.90;45.10
1329;DHT22;658;48.820;9.354;2023-06-04T06:48:53;21.90;45.00
1329;DHT22;658;48.820;9.354;2023-06-04T06:52:54;21.90;44.90
1329;DHT22;658;48.820;9.354;2023-06-04T06:56:54;21.90;44.90
1329;DHT22;658;48.820;9.354;2023-06-04T07:00:55;21.90;44.80
1329;DHT22;658;48.820;9.354;2023-06-04T07:04:56;21.90;44.80
1329;DHT22;658;48.820;9.354;2023-06-04T07:08:57;22.00;44.80
1329;DHT22;658;48.820;9.354;2023-06-04T07:13:00;22.00;44.60
1329;DHT22;658;48.820;9.354;2023-06-04T07:17:00;22.00;44.70
1329;DHT22;658;48.820;9.354;2023-06-04T07:21:03;22.00;44.60
1329;DHT22;658;48.820;9.354;2023-06-04T07:25:04;22.00;44.60
1329;DHT22;658;48.820;9.354;2023-06-04T07:29:05;22.00;44.30
1329;DHT22;658;48.820;9.354;2023-06-04T07:33:06;22.10;44.10
1329;DHT22;658;48.820;9.354;2023-06-04T07:37:07;22.10;44.10
1329;DHT22;658;48.820;9.354;2023-06-04T07:41:09;22.10;44.30
1329;DHT22;658;48.820;9.354;2023-06-04T07:45:10;22.10;44.10
1329;DHT22;658;48.820;9.354;2023-06-04T07:49:13;22.10;44.30
1329;DHT22;658;48.820;9.354;2023-06-04T07:53:13;22.10;44.40
1329;DHT22;658;48.820;9.354;2023-06-04T07:57:14;22.20;45.00
1329;DHT22;658;48.820;9.354;2023-06-04T08:01:15;22.20;44.80
1329;DHT22;658;48.820;9.354;2023-06-04T08:05:16;22.20;44.90
1329;DHT22;658;48.820;9.354;2023-06-04T08:09:19;22.20;44.70
1329;DHT22;658;48.820;9.354;2023-06-04T08:13:19;22.20;44.70
1329;DHT22;658;48.820;9.354;2023-06-04T08:17:21;22.20;44.80
1329;DHT22;658;48.820;9.354;2023-06-04T08:21:28;22.20;44.80
1329;DHT22;658;48.820;9.354;2023-06-04T08:25:28;22.20;44.70
1329;DHT22;658;48.820;9.354;2023-06-04T08:29:32;22.30;44.40
1329;DHT22;658;48.820;9.354;2023-06-04T08:33:33;22.30;44.50
1329;DHT22;658;48.820;9.354;2023-06-04T08:37:34;22.30;44.50
1329;DHT22;658;48.820;9.354;2023-06-04T08:41:43;22.30;44.70
1329;DHT22;658;48.820;9.354;2023-06-04T08:45:49;22.40;44.60
1329;DHT22;658;48.820;9.354;2023-06-04T08:49:58;22.40;44.40
1329;DHT22;658;48.820;9.354;2023-06-04T08:53:59;22.40;44.50
1329;DHT22;658;48.820;9.354;2023-06-04T08:58:01;22.40;44.50
1329;DHT22;658;48.820;9.354;2023-06-04T09:02:02;22.50;44.50
1329;DHT22;658;48.820;9.354;2023-06-04T09:06:04;22.40;44.20
1329;DHT22;658;48.820;9.354;2023-06-04T09:10:12;22.50;44.20
1329;DHT22;658;48.820;9.354;2023-06-04T09:14:14;22.50;43.40
1329;DHT22;658;48.820;9.354;2023-06-04T09:18:16;22.60;43.20
1329;DHT22;658;48.820;9.354;2023-06-04T09:22:17;22.60;43.70
1329;DHT22;658;48.820;9.354;2023-06-04T09:26:18;22.60;43.10
1329;DHT22;658;48.820;9.354;2023-06-04T09:30:18;22.70;42.60
1329;DHT22;658;48.820;9.354;2023-06-04T09:34:30;22.70;42.70
1329;DHT22;658;48.820;9.354;2023-06-04T09:38:35;22.70;42.20
1329;DHT22;658;48.820;9.354;2023-06-04T09:42:46;22.70;41.50
1329;DHT22;658;48.820;9.354;2023-06-04T09:46:56;22.80;41.00
1329;DHT22;658;48.820;9.354;2023-06-04T09:51:12;22.90;40.80
1329;DHT22;658;48.820;9.354;2023-06-04T09:55:17;22.90;40.40
1329;DHT22;658;48.820;9.354;2023-06-04T09:59:25;23.00;40.50
1329;DHT22;658;48.820;9.354;2023-06-04T10:03:31;23.00;40.60
1329;DHT22;658;48.820;9.354;2023-06-04T10:07:34;23.00;41.80
1329;DHT22;658;48.820;9.354;2023-06-04T10:11:41;23.00;41.00
1329;DHT22;658;48.820;9.354;2023-06-04T10:15:45;23.00;41.00
1329;DHT22;658;48.820;9.354;2023-06-04T10:19:49;23.00;41.20
1329;DHT22;658;48.820;9.354;2023-06-04T10:23:54;23.00;41.50
1329;DHT22;658;48.820;9.354;2023-06-04T10:27:55;23.00;41.80
1329;DHT22;658;48.820;9.354;2023-06-04T10:31:56;23.00;41.90
1329;DHT22;658;48.820;9.354;2023-06-04T10:35:57;23.00;42.00
1329;DHT22;658;48.820;9.354;2023-06-04T10:40:02;23.00;41.90
1329;DHT22;658;48.820;9.354;2023-06-04T10:44:05;23.00;42.20
1329;DHT22;658;48.820;9.354;2023-06-04T10:48:11;23.00;42.20
1329;DHT22;658;48.820;9.354;2023-06-04T10:52:12;23.00;42.20
1329;DHT22;658;48.820;9.354;2023-06-04T10:56:27;23.00;42.20
1329;DHT22;658;48.820;9.354;2023-06-04T11:00:39;23.00;42.00
1329;DHT22;658;48.820;9.354;2023-06-04T11:04:39;23.10;41.80
1329;DHT22;658;48.820;9.354;2023-06-04T11:08:40;23.10;41.50
1329;DHT22;658;48.820;9.354;2023-06-04T11:16:46;23.10;41.40
1329;DHT22;658;48.820;9.354;2023-06-04T11:20:48;23.10;41.20
1329;DHT22;658;48.820;9.354;2023-06-04T11:24:57;23.20;40.90
1329;DHT22;658;48.820;9.354;2023-06-04T11:28:59;23.20;40.90
1329;DHT22;658;48.820;9.354;2023-06-04T11:33:04;23.20;40.70
1329;DHT22;658;48.820;9.354;2023-06-04T11:37:09;23.20;40.10
1329;DHT22;658;48.820;9.354;2023-06-04T11:41:09;23.30;39.90
1329;DHT22;658;48.820;9.354;2023-06-04T11:45:14;23.30;40.10
1329;DHT22;658;48.820;9.354;2023-06-04T11:49:16;23.30;40.30
1329;DHT22;658;48.820;9.354;2023-06-04T11:53:19;23.30;40.50
1329;DHT22;658;48.820;9.354;2023-06-04T11:57:21;23.30;40.40
1329;DHT22;658;48.820;9.354;2023-06-04T12:01:24;23.30;40.20
1329;DHT22;658;48.820;9.354;2023-06-04T12:05:31;23.40;39.80
1329;DHT22;658;48.820;9.354;2023-06-04T12:09:33;23.30;39.80
1329;DHT22;658;48.820;9.354;2023-06-04T12:13:38;23.30;39.80
1329;DHT22;658;48.820;9.354;2023-06-04T12:17:59;23.40;39.80
1329;DHT22;658;48.820;9.354;2023-06-04T12:22:07;23.40;40.50
1329;DHT22;658;48.820;9.354;2023-06-04T12:26:20;23.40;40.90
1329;DHT22;658;48.820;9.354;2023-06-04T12:30:39;23.30;41.40
1329;DHT22;658;48.820;9.354;2023-06-04T12:34:40;23.40;40.80
1329;DHT22;658;48.820;9.354;2023-06-04T12:38:41;23.40;41.00
1329;DHT22;658;48.820;9.354;2023-06-04T12:42:44;23.40;40.80
1329;DHT22;658;48.820;9.354;2023-06-04T12:46:44;23.40;40.60
1329;DHT22;658;48.820;9.354;2023-06-04T12:50:45;23.40;40.70
1329;DHT22;658;48.820;9.354;2023-06-04T12:54:45;23.50;40.90
1329;DHT22;658;48.820;9.354;2023-06-04T12:58:46;23.50;41.10
1329;DHT22;658;48.820;9.354;2023-06-04T13:02:47;23.50;41.50
1329;DHT22;658;48.820;9.354;2023-06-04T13:06:47;23.50;41.60
1329;DHT22;658;48.820;9.354;2023-06-04T13:10:49;23.50;41.60
1329;DHT22;658;48.820;9.354;2023-06-04T13:14:50;23.50;41.50
1329;DHT22;658;48.820;9.354;2023-06-04T13:18:53;23.50;41.20
1329;DHT22;658;48.820;9.354;2023-06-04T13:22:54;23.50;41.00
1329;DHT22;658;48.820;9.354;2023-06-04T13:26:55;23.50;41.10
1329;DHT22;658;48.820;9.354;2023-06-04T13:30:56;23.50;41.20
1329;DHT22;658;48.820;9.354;2023-06-04T13:34:56;23.50;41.10
1329;DHT22;658;48.820;9.354;2023-06-04T13:38:59;23.50;41.20
1329;DHT22;658;48.820;9.354;2023-06-04T13:43:00;23.50;41.10
1329;DHT22;658;48.820;9.354;2023-06-04T13:47:01;23.50;41.20
1329;DHT22;658;48.820;9.354;2023-06-04T13:51:01;23.50;41.20
1329;DHT22;658;48.820;9.354;2023-06-04T13:55:02;23.50;41.20
1329;DHT22;658;48.820;9.354;2023-06-04T13:59:03;23.50;41.30
1329;DHT22;658;48.820;9.354;2023-06-04T14:03:03;23.60;41.50
1329;DHT22;658;48.820;9.354;2023-06-04T14:07:04;23.50;41.30
1329;DHT22;658;48.820;9.354;2023-06-04T14:11:06;23.60;41.30
1329;DHT22;658;48.820;9.354;2023-06-04T14:15:08;23.60;41.30
1329;DHT22;658;48.820;9.354;2023-06-04T14:19:08;23.60;41.40
1329;DHT22;658;48.820;9.354;2023-06-04T14:23:09;23.50;41.30
1329;DHT22;658;48.820;9.354;2023-06-04T14:27:12;23.60;41.40
1329;DHT22;658;48.820;9.354;2023-06-04T14:31:13;23.60;41.30
1329;DHT22;658;48.820;9.354;2023-06-04T14:35:13;23.60;41.40
1329;DHT22;658;48.820;9.354;2023-06-04T14:39:17;23.60;41.40
1329;DHT22;658;48.820;9.354;2023-06-04T14:43:20;23.60;41.40
1329;DHT22;658;48.820;9.354;2023-06-04T14:47:20;23.60;41.40
1329;DHT22;658;48.820;9.354;2023-06-04T14:51:21;23.60;41.40
1329;DHT22;658;48.820;9.354;2023-06-04T14:55:24;23.60;41.40
1329;DHT22;658;48.820;9.354;2023-06-04T14:59:25;23.60;41.40
1329;DHT22;658;48.820;9.354;2023-06-04T15:03:28;23.60;41.40
1329;DHT22;658;48.820;9.354;2023-06-04T15:07:28;23.60;41.40
1329;DHT22;658;48.820;9.354;2023-06-04T15:11:29;23.60;41.40
1329;DHT22;658;48.820;9.354;2023-06-04T15:15:30;23.60;41.30
1329;DHT22;658;48.820;9.354;2023-06-04T15:19:32;23.60;41.30
1329;DHT22;658;48.820;9.354;2023-06-04T15:23:32;23.60;41.30
1329;DHT22;658;48.820;9.354;2023-06-04T15:27:34;23.60;41.20
1329;DHT22;658;48.820;9.354;2023-06-04T15:31:34;23.70;41.30
1329;DHT22;658;48.820;9.354;2023-06-04T15:35:35;23.70;41.40
1329;DHT22;658;48.820;9.354;2023-06-04T15:39:35;23.70;41.40
1329;DHT22;658;48.820;9.354;2023-06-04T15:43:36;23.70;41.30
1329;DHT22;658;48.820;9.354;2023-06-04T15:47:37;23.70;41.40
1329;DHT22;658;48.820;9.354;2023-06-04T15:51:40;23.70;41.90
1329;DHT22;658;48.820;9.354;2023-06-04T15:55:40;23.70;41.40
1329;DHT22;658;48.820;9.354;2023-06-04T15:59:41;23.70;41.30
1329;DHT22;658;48.820;9.354;2023-06-04T16:03:42;23.70;41.30
1329;DHT22;658;48.820;9.354;2023-06-04T16:07:43;23.70;41.30
1329;DHT22;658;48.820;9.354;2023-06-04T16:11:43;23.70;41.30
1329;DHT22;658;48.820;9.354;2023-06-04T16:15:46;23.70;41.30
1329;DHT22;658;48.820;9.354;2023-06-04T16:19:47;23.80;41.30
1329;DHT22;658;48.820;9.354;2023-06-04T16:23:47;23.80;41.30
1329;DHT22;658;48.820;9.354;2023-06-04T16:27:48;23.80;41.40
1329;DHT22;658;48.820;9.354;2023-06-04T16:31:48;23.80;41.40
1329;DHT22;658;48.820;9.354;2023-06-04T16:35:49;23.80;41.40
1329;DHT22;658;48.820;9.354;2023-06-04T16:39:50;23.80;41.40
1329;DHT22;658;48.820;9.354;2023-06-04T16:43:53;23.80;41.40
1329;DHT22;658;48.820;9.354;2023-06-04T16:47:53;23.80;41.30
1329;DHT22;658;48.820;9.354;2023-06-04T16:51:54;23.80;41.40
1329;DHT22;658;48.820;9.354;2023-06-04T16:55:54;23.80;41.40
1329;DHT22;658;48.820;9.354;2023-06-04T16:59:55;23.80;41.40
1329;DHT22;658;48.820;9.354;2023-06-04T17:03:58;23.80;41.30
1329;DHT22;658;48.820;9.354;2023-06-04T17:07:58;23.80;41.40
1329;DHT22;658;48.820;9.354;2023-06-04T17:11:59;23.80;41.40
1329;DHT22;658;48.820;9.354;2023-06-04T17:16:00;23.80;41.40
1329;DHT22;658;48.820;9.354;2023-06-04T17:20:01;23.80;41.40
1329;DHT22;658;48.820;9.354;2023-06-04T17:24:02;23.80;41.40
1329;DHT22;658;48.820;9.354;2023-06-04T17:28:02;23.80;41.40
1329;DHT22;658;48.820;9.354;2023-06-04T17:32:03;23.90;41.50
1329;DHT22;658;48.820;9.354;2023-06-04T17:36:04;23.80;41.40
1329;DHT22;658;48.820;9.354;2023-06-04T17:40:06;23.90;41.40
1329;DHT22;658;48.820;9.354;2023-06-04T17:44:09;23.80;41.40
1329;DHT22;658;48.820;9.354;2023-06-04T17:48:10;23.80;41.40
1329;DHT22;658;48.820;9.354;2023-06-04T17:52:10;23.90;41.40
1329;DHT22;658;48.820;9.354;2023-06-04T17:56:11;23.90;41.50
1329;DHT22;658;48.820;9.354;2023-06-04T18:00:12;23.90;41.40
1329;DHT22;658;48.820;9.354;2023-06-04T18:04:13;23.90;41.40
1329;DHT22;658;48.820;9.354;2023-06-04T18:08:14;23.90;41.40
1329;DHT22;658;48.820;9.354;2023-06-04T18:12:15;23.90;41.30
1329;DHT22;658;48.820;9.354;2023-06-04T18:16:15;23.90;41.30
1329;DHT22;658;48.820;9.354;2023-06-04T18:20:16;23.90;41.10
1329;DHT22;658;48.820;9.354;2023-06-04T18:24:17;23.90;41.10
1329;DHT22;658;48.820;9.354;2023-06-04T18:28:17;23.90;41.10
1329;DHT22;658;48.820;9.354;2023-06-04T18:32:18;23.90;41.10
1329;DHT22;658;48.820;9.354;2023-06-04T18:36:19;23.90;41.00
1329;DHT22;658;48.820;9.354;2023-06-04T18:40:20;23.90;41.00
1329;DHT22;658;48.820;9.354;2023-06-04T18:44:26;23.90;40.90
1329;DHT22;658;48.820;9.354;2023-06-04T18:48:26;23.90;41.10
1329;DHT22;658;48.820;9.354;2023-06-04T18:52:27;23.90;40.90
1329;DHT22;658;48.820;9.354;2023-06-04T18:56:30;23.90;40.90
1329;DHT22;658;48.820;9.354;2023-06-04T19:00:31;23.90;40.90
1329;DHT22;658;48.820;9.354;2023-06-04T19:04:34;23.90;40.80
1329;DHT22;658;48.820;9.354;2023-06-04T19:08:34;23.90;40.80
1329;DHT22;658;48.820;9.354;2023-06-04T19:12:35;23.90;40.90
1329;DHT22;658;48.820;9.354;2023-06-04T19:16:36;23.90;40.70
1329;DHT22;658;48.820;9.354;2023-06-04T19:20:36;23.90;41.00
1329;DHT22;658;48.820;9.354;2023-06-04T19:24:39;23.90;41.00
1329;DHT22;658;48.820;9.354;2023-06-04T19:28:40;23.90;40.90
1329;DHT22;658;48.820;9.354;2023-06-04T19:32:43;23.90;40.90
1329;DHT22;658;48.820;9.354;2023-06-04T19:36:44;23.90;41.00
1329;DHT22;658;48.820;9.354;2023-06-04T19:40:45;23.90;41.00
1329;DHT22;658;48.820;9.354;2023-06-04T19:44:45;23.90;41.00
1329;DHT22;658;48.820;9.354;2023-06-04T19:48:46;23.90;41.20
1329;DHT22;658;48.820;9.354;2023-06-04T19:52:47;23.90;41.00
1329;DHT22;658;48.820;9.354;2023-06-04T19:56:47;23.90;41.20
1329;DHT22;658;48.820;9.354;2023-06-04T20:00:48;23.90;41.20
1329;DHT22;658;48.820;9.354;2023-06-04T20:04:51;23.90;41.20
1329;DHT22;658;48.820;9.354;2023-06-04T20:08:52;23.90;41.20
1329;DHT22;658;48.820;9.354;2023-06-04T20:12:53;23.90;41.20
1329;DHT22;658;48.820;9.354;2023-06-04T20:16:54;23.80;41.20
1329;DHT22;658;48.820;9.354;2023-06-04T20:20:55;23.90;41.20
1329;DHT22;658;48.820;9.354;2023-06-04T20:24:58;23.90;41.00
1329;DHT22;658;48.820;9.354;2023-06-04T20:28:59;23.90;41.00
1329;DHT22;658;48.820;9.354;2023-06-04T20:33:01;23.80;39.40
1329;DHT22;658;48.820;9.354;2023-06-04T20:37:03;23.50;39.20
1329;DHT22;658;48.820;9.354;2023-06-04T20:41:03;23.40;39.50
1329;DHT22;658;48.820;9.354;2023-06-04T20:45:04;23.30;40.00
1329;DHT22;658;48.820;9.354;2023-06-04T20:49:05;23.20;39.90
1329;DHT22;658;48.820;9.354;2023-06-04T20:53:06;23.00;39.90
1329;DHT22;658;48.820;9.354;2023-06-04T20:57:06;22.90;40.10
1329;DHT22;658;48.820;9.354;2023-06-04T21:01:07;22.80;40.70
1329;DHT22;658;48.820;9.354;2023-06-04T21:05:08;22.60;41.20
1329;DHT22;658;48.820;9.354;2023-06-04T21:09:08;22.50;41.30
1329;DHT22;658;48.820;9.354;2023-06-04T21:13:09;22.40;41.50
1329;DHT22;658;48.820;9.354;2023-06-04T21:17:10;22.50;41.60
1329;DHT22;658;48.820;9.354;2023-06-04T21:21:13;22.60;41.70
1329;DHT22;658;48.820;9.354;2023-06-04T21:25:16;22.60;41.60
1329;DHT22;658;48.820;9.354;2023-06-04T21:29:19;22.70;41.50
1329;DHT22;658;48.820;9.354;2023-06-04T21:33:22;22.80;41.50
1329;DHT22;658;48.820;9.354;2023-06-04T21:37:22;22.90;41.50
1329;DHT22;658;48.820;9.354;2023-06-04T21:41:26;22.90;41.50
1329;DHT22;658;48.820;9.354;2023-06-04T21:45:28;22.90;41.50
1329;DHT22;658;48.820;9.354;2023-06-04T21:49:29;22.90;41.40
1329;DHT22;658;48.820;9.354;2023-06-04T21:53:29;23.00;41.50
1329;DHT22;658;48.820;9.354;2023-06-04T21:57:33;23.00;41.50
1329;DHT22;658;48.820;9.354;2023-06-04T22:01:33;23.00;41.50
1329;DHT22;658;48.820;9.354;2023-06-04T22:05:34;23.00;41.50
1329;DHT22;658;48.820;9.354;2023-06-04T22:09:35;23.10;41.60
1329;DHT22;658;48.820;9.354;2023-06-04T22:13:38;23.00;41.50
1329;DHT22;658;48.820;9.354;2023-06-04T22:17:38;23.10;41.60
1329;DHT22;658;48.820;9.354;2023-06-04T22:21:39;23.10;41.70
1329;DHT22;658;48.820;9.354;2023-06-04T22:25:42;23.10;41.70
1329;DHT22;658;48.820;9.354;2023-06-04T22:29:43;23.00;41.60
1329;DHT22;658;48.820;9.354;2023-06-04T22:33:46;23.10;41.80
1329;DHT22;658;48.820;9.354;2023-06-04T22:37:48;23.10;41.90
1329;DHT22;658;48.820;9.354;2023-06-04T22:41:49;23.10;41.80
1329;DHT22;658;48.820;9.354;2023-06-04T22:45:50;23.00;41.70
1329;DHT22;658;48.820;9.354;2023-06-04T22:49:50;23.10;41.80
1329;DHT22;658;48.820;9.354;2023-06-04T22:53:53;23.10;41.90
1329;DHT22;658;48.820;9.354;2023-06-04T22:57:55;23.10;41.90
1329;DHT22;658;48.820;9.354;2023-06-04T23:01:56;23.00;41.90
1329;DHT22;658;48.820;9.354;2023-06-04T23:05:56;23.10;42.00
1329;DHT22;658;48.820;9.354;2023-06-04T23:09:57;23.10;42.00
1329;DHT22;658;48.820;9.354;2023-06-04T23:13:57;23.10;42.00
1329;DHT22;658;48.820;9.354;2023-06-04T23:17:58;23.00;42.50
1329;DHT22;658;48.820;9.354;2023-06-04T23:21:59;23.00;41.90
1329;DHT22;658;48.820;9.354;2023-06-04T23:26:00;23.00;42.00
1329;DHT22;658;48.820;9.354;2023-06-04T23:30:01;23.00;42.10
1329;DHT22;658;48.820;9.354;2023-06-04T23:34:05;23.00;42.10
1329;DHT22;658;48.820;9.354;2023-06-04T23:38:10;23.00;42.10
1329;DHT22;658;48.820;9.354;2023-06-04T23:42:11;23.00;42.20
1329;DHT22;658;48.820;9.354;2023-06-04T23:46:11;23.00;42.20
1329;DHT22;658;48.820;9.354;2023-06-04T23:50:12;23.00;42.20
1329;DHT22;658;48.820;9.354;2023-06-04T23:54:14;23.00;42.20
1329;DHT22;658;48.820;9.354;2023-06-04T23:58:17;23.00;42.20
